createdAt,value
2023-03-04T00:00:27.280Z,70.13
2023-03-04T00:02:53.768Z,62.38
2023-03-04T00:05:20.211Z,60.22
2023-03-04T00:07:46.632Z,69.60
2023-03-04T00:10:13.453Z,65.78
2023-03-04T00:12:39.938Z,72.13
2023-03-04T00:15:06.906Z,68.68
2023-03-04T00:17:33.369Z,64.10
2023-03-04T00:19:59.928Z,56.35
2023-03-04T00:22:26.388Z,62.75
2023-03-04T00:24:52.957Z,59.20
2023-03-04T00:27:19.434Z,74.90
2023-03-04T00:29:46.075Z,69.88
2023-03-04T00:32:12.800Z,67.10
2023-03-04T00:34:40.630Z,69.63
2023-03-04T00:37:07.082Z,68.32
2023-03-04T00:39:33.541Z,59.80
2023-03-04T00:42:00.154Z,62.50
2023-03-04T00:44:26.588Z,62.80
2023-03-04T00:46:53.031Z,62.33
2023-03-04T00:49:19.527Z,65.07
2023-03-04T00:51:45.995Z,61.75
2023-03-04T00:54:12.472Z,61.83
2023-03-04T00:56:39.066Z,57.60
2023-03-04T00:59:07.967Z,57.80
2023-03-04T01:01:34.505Z,54.90
2023-03-04T01:04:00.935Z,57.78
2023-03-04T01:06:27.396Z,61.80
2023-03-04T01:08:53.873Z,51.75
2023-03-04T01:11:20.385Z,57.42
2023-03-04T01:13:47.027Z,70.28
2023-03-04T01:16:13.755Z,56.45
2023-03-04T01:18:40.417Z,57.97
2023-03-04T01:21:07.086Z,63.65
2023-03-04T01:23:33.560Z,61.92
2023-03-04T01:26:00.060Z,56.97
2023-03-04T01:28:26.523Z,55.72
2023-03-04T01:30:53.098Z,61.08
2023-03-04T01:33:19.616Z,63.03
2023-03-04T01:35:46.137Z,58.10
2023-03-04T01:38:13.205Z,48.75
2023-03-04T01:40:39.835Z,58.60
2023-03-04T01:43:07.828Z,45.53
2023-03-04T01:45:35.817Z,47.70
2023-03-04T01:48:02.686Z,60.25
2023-03-04T01:50:35.531Z,55.33
2023-03-04T01:53:03.242Z,60.80
2023-03-04T01:55:31.628Z,52.67
2023-03-04T01:57:58.368Z,54.88
2023-03-04T02:00:33.821Z,43.55
2023-03-04T02:03:04.412Z,51.33
2023-03-04T02:09:10.440Z,57.22
2023-03-04T02:11:38.370Z,43.83
2023-03-04T02:14:06.349Z,54.17
2023-03-04T02:16:33.317Z,42.25
2023-03-04T02:19:00.271Z,44.28
2023-03-04T02:21:29.583Z,49.90
2023-03-04T02:24:11.997Z,42.15
2023-03-04T02:26:41.548Z,50.17
2023-03-04T02:29:10.461Z,46.58
2023-03-04T02:31:49.386Z,43.38
2023-03-04T02:34:22.422Z,44.97
2023-03-04T02:36:51.261Z,50.80
2023-03-04T02:39:20.415Z,43.90
2023-03-04T02:41:55.654Z,41.85
2023-03-04T02:44:26.001Z,37.53
2023-03-04T02:46:53.368Z,45.38
2023-03-04T02:49:20.574Z,40.75
2023-03-04T02:51:47.324Z,44.03
2023-03-04T02:54:18.387Z,53.17
2023-03-04T02:56:52.429Z,42.92
2023-03-04T02:59:20.405Z,40.17
2023-03-04T03:01:46.954Z,50.10
2023-03-04T03:04:13.417Z,36.75
2023-03-04T03:06:40.614Z,30.80
2023-03-04T03:09:07.648Z,32.70
2023-03-04T03:11:34.662Z,37.90
2023-03-04T03:14:01.990Z,47.00
2023-03-04T03:16:28.541Z,48.05
2023-03-04T03:18:54.997Z,48.28
2023-03-04T03:21:21.602Z,46.45
2023-03-04T03:23:48.015Z,45.28
2023-03-04T03:26:14.478Z,42.58
2023-03-04T03:28:40.949Z,45.30
2023-03-04T03:31:07.447Z,35.33
2023-03-04T03:33:33.907Z,38.70
2023-03-04T03:36:00.548Z,39.75
2023-03-04T03:38:27.719Z,42.20
2023-03-04T03:40:54.135Z,47.30
2023-03-04T03:43:20.554Z,46.47
2023-03-04T03:45:47.081Z,46.50
2023-03-04T03:48:13.946Z,40.17
2023-03-04T03:50:40.381Z,38.03
2023-03-04T03:53:06.868Z,36.20
2023-03-04T03:55:33.597Z,40.17
2023-03-04T03:58:00.064Z,44.83
2023-03-04T04:00:26.822Z,36.22
2023-03-04T04:02:55.491Z,39.20
2023-03-04T04:05:21.925Z,45.03
2023-03-04T04:07:48.412Z,47.58
2023-03-04T04:10:14.917Z,37.33
2023-03-04T04:12:41.341Z,44.40
2023-03-04T04:15:09.962Z,35.22
2023-03-04T04:17:36.516Z,39.63
2023-03-04T04:20:03.319Z,46.63
2023-03-04T04:22:29.788Z,30.58
2023-03-04T04:24:56.281Z,38.40
2023-03-04T04:27:22.943Z,29.90
2023-03-04T04:29:49.373Z,48.50
2023-03-04T04:32:15.930Z,49.67
2023-03-04T04:34:42.516Z,39.92
2023-03-04T04:37:08.961Z,47.22
2023-03-04T04:39:35.511Z,32.35
2023-03-04T04:42:03.481Z,43.92
2023-03-04T04:44:30.030Z,32.00
2023-03-04T04:46:56.464Z,38.83
2023-03-04T04:49:22.883Z,31.80
2023-03-04T04:51:49.373Z,40.30
2023-03-04T04:54:15.848Z,31.67
2023-03-04T04:56:42.431Z,49.83
2023-03-04T04:59:09.178Z,31.48
2023-03-04T05:01:35.852Z,24.48
2023-03-04T05:04:02.389Z,34.97
2023-03-04T05:06:28.949Z,29.58
2023-03-04T05:08:55.641Z,40.22
2023-03-04T05:11:22.605Z,24.90
2023-03-04T05:13:49.669Z,46.92
2023-03-04T05:16:17.866Z,28.58
2023-03-04T05:18:44.555Z,35.28
2023-03-04T05:21:11.452Z,34.78
2023-03-04T05:23:40.625Z,23.35
2023-03-04T05:26:09.387Z,22.77
2023-03-04T05:28:36.185Z,26.65
2023-03-04T05:31:03.171Z,25.55
2023-03-04T05:33:29.869Z,29.70
2023-03-04T05:35:56.500Z,25.55
2023-03-04T05:38:23.774Z,36.22
2023-03-04T05:40:55.363Z,29.45
2023-03-04T05:45:49.996Z,26.40
2023-03-04T05:48:16.476Z,21.33
2023-03-04T05:50:42.964Z,35.08
2023-03-04T05:53:09.441Z,32.38
2023-03-04T05:55:36.057Z,26.65
2023-03-04T05:58:02.533Z,21.88
2023-03-04T06:00:29.063Z,22.65
2023-03-04T06:02:55.619Z,22.98
2023-03-04T06:05:22.375Z,25.45
2023-03-04T06:07:48.924Z,24.45
2023-03-04T06:10:17.539Z,24.98
2023-03-04T06:12:44.102Z,23.85
2023-03-04T06:15:11.063Z,22.27
2023-03-04T06:17:41.795Z,26.80
2023-03-04T06:20:09.824Z,26.60
2023-03-04T06:22:36.336Z,26.17
2023-03-04T06:25:02.826Z,25.27
2023-03-04T06:27:29.339Z,25.15
2023-03-04T06:29:56.446Z,25.23
2023-03-04T06:32:23.135Z,24.98
2023-03-04T06:34:49.611Z,21.13
2023-03-04T06:37:16.318Z,24.20
2023-03-04T06:39:42.800Z,24.55
2023-03-04T06:42:09.518Z,23.83
2023-03-04T06:44:35.981Z,27.42
2023-03-04T06:47:02.654Z,21.50
2023-03-04T06:49:29.135Z,26.40
2023-03-04T06:51:55.659Z,23.55
2023-03-04T06:54:22.157Z,28.90
2023-03-04T06:56:48.649Z,26.35
2023-03-04T06:59:15.101Z,23.55
2023-03-04T07:01:41.611Z,20.42
2023-03-04T07:04:08.134Z,19.33
2023-03-04T07:06:34.815Z,22.92
2023-03-04T07:09:01.454Z,26.48
2023-03-04T07:11:27.980Z,24.85
2023-03-04T07:13:54.485Z,17.17
2023-03-04T07:16:23.222Z,23.05
2023-03-04T07:18:50.570Z,33.35
2023-03-04T07:21:17.645Z,34.22
2023-03-04T07:23:44.530Z,27.77
2023-03-04T07:26:11.044Z,28.17
2023-03-04T08:51:49.387Z,24.13
2023-03-04T08:54:15.845Z,13.52
2023-03-04T08:56:42.418Z,24.10
2023-03-04T08:59:08.942Z,14.88
2023-03-04T09:01:35.438Z,14.98
2023-03-04T09:04:01.963Z,16.08
2023-03-04T09:06:28.542Z,14.30
2023-03-04T09:08:55.102Z,12.77
2023-03-04T09:11:21.668Z,12.57
2023-03-04T09:13:48.238Z,25.75
2023-03-04T09:16:15.484Z,12.25
2023-03-04T09:18:42.565Z,20.02
2023-03-04T09:21:09.856Z,14.35
2023-03-04T09:23:37.562Z,14.27
2023-03-04T09:26:24.828Z,16.15
2023-03-04T09:28:57.112Z,13.77
2023-03-04T09:31:24.607Z,13.85
2023-03-04T09:33:52.097Z,13.45
2023-03-04T09:36:18.774Z,13.85
2023-03-04T09:46:37.622Z,23.05
2023-03-04T09:49:07.092Z,19.27
2023-03-04T09:51:54.699Z,14.80
2023-03-04T09:54:37.321Z,19.50
2023-03-04T09:57:23.327Z,22.00
2023-03-04T10:00:19.862Z,17.95
2023-03-04T10:03:01.526Z,19.27
2023-03-04T10:05:30.790Z,12.35
2023-03-04T10:08:00.892Z,14.57
2023-03-04T10:10:33.032Z,22.05
2023-03-04T10:13:02.389Z,17.65
2023-03-04T10:15:44.051Z,16.05
2023-03-04T10:18:27.586Z,15.75
2023-03-04T10:21:00.228Z,22.20
2023-03-04T10:23:28.692Z,19.52
2023-03-04T10:25:56.593Z,27.25
2023-03-04T10:33:52.217Z,20.08
2023-03-04T10:36:30.531Z,29.63
2023-03-04T10:39:10.928Z,19.30
2023-03-04T10:41:41.846Z,21.48
2023-03-04T10:44:08.555Z,25.33
2023-03-04T10:46:47.300Z,22.83
2023-03-04T10:49:18.828Z,24.25
2023-03-04T10:51:51.827Z,26.50
2023-03-04T10:56:56.887Z,20.98
2023-03-04T10:59:32.634Z,29.05
2023-03-04T11:02:13.674Z,37.33
2023-03-04T11:04:40.448Z,29.05
2023-03-04T11:07:11.146Z,30.65
2023-03-04T11:09:37.988Z,28.17
2023-03-04T11:12:11.463Z,27.30
2023-03-04T11:14:46.241Z,29.02
2023-03-04T11:17:39.672Z,29.23
2023-03-04T11:20:29.194Z,31.67
2023-03-04T11:22:58.913Z,28.00
2023-03-04T11:25:30.143Z,31.67
2023-03-04T11:28:03.070Z,41.35
2023-03-04T11:30:34.956Z,28.13
2023-03-04T11:33:16.139Z,30.38
2023-03-04T11:35:50.855Z,25.88
2023-03-04T11:38:20.517Z,28.10
2023-03-04T11:40:57.757Z,23.52
2023-03-04T11:43:37.556Z,35.58
2023-03-04T11:46:29.322Z,27.30
2023-03-04T11:49:41.086Z,30.20
2023-03-04T11:52:19.661Z,31.70
2023-03-04T11:55:04.815Z,37.97
2023-03-04T11:58:10.442Z,28.13
2023-03-04T12:00:44.705Z,32.05
2023-03-04T12:03:36.127Z,35.05
2023-03-04T12:06:40.074Z,33.47
2023-03-04T12:09:18.402Z,37.63
2023-03-04T12:12:05.932Z,32.40
2023-03-04T12:14:41.708Z,35.42
2023-03-04T12:17:23.418Z,36.38
2023-03-04T12:22:54.394Z,32.30
2023-03-04T12:25:43.377Z,32.90
2023-03-04T12:28:40.737Z,24.80
2023-03-04T12:31:25.883Z,31.85
2023-03-04T12:34:03.444Z,46.20
2023-03-04T12:36:50.450Z,38.70
2023-03-04T12:39:54.693Z,34.38
2023-03-04T12:42:45.906Z,33.55
2023-03-04T12:45:30.448Z,29.40
2023-03-04T12:48:19.898Z,32.05
2023-03-04T12:50:53.301Z,27.15
2023-03-04T12:53:42.771Z,38.60
2023-03-04T12:56:23.216Z,34.13
2023-03-04T12:58:50.012Z,41.88
2023-03-04T13:01:26.811Z,30.60
2023-03-04T13:03:53.533Z,35.30
2023-03-04T13:06:41.883Z,19.42
2023-03-04T13:09:20.402Z,26.83
2023-03-04T13:11:54.748Z,28.77
2023-03-04T13:14:21.302Z,19.35
2023-03-04T13:16:54.016Z,27.95
2023-03-04T13:19:53.012Z,34.53
2023-03-04T13:22:35.831Z,32.00
2023-03-04T13:25:28.181Z,24.48
2023-03-04T13:28:00.608Z,25.70
2023-03-04T13:30:33.418Z,17.17
2023-03-04T13:33:08.774Z,25.17
2023-03-04T13:35:47.755Z,27.85
2023-03-04T13:38:34.800Z,21.52
2023-03-04T13:41:33.902Z,19.55
2023-03-04T13:44:39.149Z,25.27
2023-03-04T13:47:26.435Z,19.45
2023-03-04T13:50:21.169Z,28.95
2023-03-04T13:52:48.770Z,33.75
2023-03-04T13:56:04.483Z,26.80
2023-03-04T13:58:31.032Z,37.45
2023-03-04T14:00:57.597Z,36.08
2023-03-04T14:03:31.601Z,31.92
2023-03-04T14:06:27.361Z,24.38
2023-03-04T14:08:56.091Z,21.75
2023-03-04T14:11:41.748Z,28.73
2023-03-04T14:14:22.801Z,25.08
2023-03-04T14:16:52.965Z,20.30
2023-03-04T14:19:27.959Z,24.80
2023-03-04T14:21:54.922Z,30.50
2023-03-04T14:24:22.133Z,29.02
2023-03-04T14:26:49.541Z,31.02
2023-03-04T14:29:30.705Z,27.63
2023-03-04T14:31:59.605Z,31.08
2023-03-04T14:34:33.361Z,27.38
2023-03-04T14:36:59.845Z,23.88
2023-03-04T14:39:30.487Z,19.85
2023-03-04T14:42:02.053Z,26.63
2023-03-04T14:44:44.572Z,18.27
2023-03-04T14:47:34.890Z,22.98
2023-03-04T14:50:03.639Z,29.67
2023-03-04T14:52:44.709Z,24.35
2023-03-04T14:55:13.886Z,28.90
2023-03-04T14:57:41.978Z,43.60
2023-03-04T15:00:20.219Z,26.80
2023-03-04T15:02:52.659Z,27.75
2023-03-04T15:05:28.634Z,29.85
2023-03-04T15:07:58.232Z,34.30
2023-03-04T15:10:35.314Z,28.55
2023-03-04T15:13:04.335Z,26.95
2023-03-04T15:15:40.245Z,38.88
2023-03-04T15:18:20.672Z,25.17
2023-03-04T15:21:26.528Z,29.88
2023-03-04T15:23:53.223Z,25.67
2023-03-04T15:26:19.776Z,30.75
2023-03-04T15:28:46.272Z,32.38
2023-03-04T15:31:25.767Z,27.17
2023-03-04T15:33:53.199Z,32.88
2023-03-04T15:36:22.094Z,27.77
2023-03-04T15:38:53.456Z,30.60
2023-03-04T15:41:26.700Z,39.78
2023-03-04T15:43:54.321Z,40.97
2023-03-04T15:46:21.225Z,28.55
2023-03-04T15:48:48.697Z,27.42
2023-03-04T15:51:18.716Z,33.92
2023-03-04T15:53:51.012Z,33.20
2023-03-04T15:56:20.492Z,34.00
2023-03-04T15:58:55.803Z,34.20
2023-03-04T16:01:25.334Z,29.30
2023-03-04T16:03:53.833Z,23.00
2023-03-04T16:06:23.369Z,37.78
2023-03-04T16:08:51.359Z,31.50
2023-03-04T16:11:21.501Z,31.50
2023-03-04T16:13:48.785Z,23.92
2023-03-04T16:16:15.930Z,34.95
2023-03-04T16:18:42.480Z,40.70
2023-03-04T16:21:15.357Z,31.85
2023-03-04T16:23:47.630Z,36.88
2023-03-04T16:26:35.525Z,30.88
2023-03-04T16:29:03.239Z,23.88
2023-03-04T16:31:29.803Z,34.05
2023-03-04T16:33:56.557Z,22.80
2023-03-04T16:36:26.850Z,36.22
2023-03-04T16:38:59.039Z,29.02
2023-03-04T16:41:28.458Z,20.48
2023-03-04T16:43:56.003Z,19.30
2023-03-04T16:46:23.694Z,26.95
2023-03-04T16:48:50.213Z,26.45
2023-03-04T16:51:20.408Z,25.27
2023-03-04T16:54:00.205Z,31.05
2023-03-04T16:56:27.644Z,35.45
2023-03-04T16:58:54.266Z,21.25
2023-03-04T17:01:27.088Z,36.25
2023-03-04T17:03:55.086Z,23.95
2023-03-04T17:06:22.031Z,22.75
2023-03-04T17:08:48.854Z,23.45
2023-03-04T17:11:23.154Z,24.20
2023-03-04T17:13:50.301Z,22.75
2023-03-04T17:16:17.019Z,33.30
2023-03-04T17:18:45.687Z,38.67
2023-03-04T17:21:15.604Z,39.67
2023-03-04T17:23:42.164Z,22.70
2023-03-04T17:26:09.346Z,22.52
2023-03-04T17:28:36.503Z,23.95
2023-03-04T17:31:09.198Z,31.20
2023-03-04T17:33:35.620Z,33.35
2023-03-04T17:36:02.123Z,29.92
2023-03-04T17:38:28.531Z,40.65
2023-03-04T17:40:56.551Z,27.73
2023-03-04T17:43:23.044Z,29.45
2023-03-04T17:45:49.628Z,28.80
2023-03-04T17:48:16.442Z,22.20
2023-03-04T17:50:50.442Z,31.08
2023-03-04T17:53:17.454Z,31.77
2023-03-04T17:56:00.850Z,21.20
2023-03-04T17:58:29.191Z,37.53
2023-03-04T18:01:01.837Z,36.22
2023-03-04T18:03:28.420Z,33.67
2023-03-04T18:05:57.198Z,37.75
2023-03-04T18:08:24.208Z,26.67
2023-03-04T18:10:51.057Z,29.25
2023-03-04T18:13:17.623Z,29.75
2023-03-04T18:15:44.069Z,39.08
2023-03-04T18:18:10.536Z,34.95
2023-03-04T18:20:37.081Z,30.95
2023-03-04T18:23:06.387Z,39.30
2023-03-04T18:25:32.831Z,35.72
2023-03-04T18:27:59.355Z,45.65
2023-03-04T18:30:27.480Z,33.13
2023-03-04T18:32:54.787Z,31.73
2023-03-04T18:35:22.198Z,29.02
2023-03-04T18:37:49.489Z,36.80
2023-03-04T18:40:16.487Z,29.83
2023-03-04T18:42:44.195Z,40.25
2023-03-04T18:45:15.281Z,33.63
2023-03-04T18:47:44.834Z,36.30
2023-03-04T18:50:12.963Z,34.13
2023-03-04T18:52:39.832Z,32.35
2023-03-04T18:55:06.786Z,31.70
2023-03-04T18:57:33.480Z,31.42
2023-03-04T19:00:03.841Z,28.30
2023-03-04T19:02:41.873Z,47.28
2023-03-04T19:05:13.612Z,39.28
2023-03-04T19:07:43.219Z,25.65
2023-03-04T19:10:12.160Z,35.47
2023-03-04T19:12:39.097Z,37.35
2023-03-04T19:15:08.434Z,27.58
2023-03-04T19:17:35.872Z,26.98
2023-03-04T19:20:07.197Z,46.25
2023-03-04T19:22:33.727Z,37.67
2023-03-04T19:25:00.247Z,33.15
2023-03-04T19:27:27.034Z,35.10
2023-03-04T19:29:53.566Z,40.47
2023-03-04T19:32:20.273Z,32.10
2023-03-04T19:34:47.673Z,27.85
2023-03-04T19:37:15.568Z,34.03
2023-03-04T19:39:46.206Z,33.33
2023-03-04T19:42:13.578Z,40.93
2023-03-04T19:44:41.295Z,40.72
2023-03-04T19:47:09.088Z,37.35
2023-03-04T19:49:35.832Z,43.67
2023-03-04T19:52:02.420Z,29.23
2023-03-04T19:54:29.340Z,30.80
2023-03-04T19:56:56.012Z,40.10
2023-03-04T19:59:22.543Z,28.85
2023-03-04T20:01:49.125Z,33.35
2023-03-04T20:04:18.174Z,31.15
2023-03-04T20:06:46.942Z,27.88
2023-03-04T20:09:15.151Z,25.23
2023-03-04T20:11:56.746Z,33.03
2023-03-04T21:25:19.031Z,27.42
2023-03-04T21:27:45.457Z,25.45
2023-03-04T21:30:12.272Z,26.92
2023-03-04T21:32:39.349Z,27.08
2023-03-04T21:35:06.383Z,28.20
2023-03-04T21:37:32.945Z,23.17
2023-03-04T21:40:01.236Z,21.90
2023-03-04T21:42:27.791Z,27.23
2023-03-04T21:44:54.286Z,20.90
2023-03-04T21:47:21.874Z,26.77
2023-03-04T21:49:49.213Z,20.90
2023-03-04T21:52:17.072Z,27.13
2023-03-04T21:54:43.544Z,26.48
2023-03-04T21:57:10.474Z,13.30
2023-03-04T21:59:38.521Z,23.45
2023-03-04T22:02:05.046Z,18.10
2023-03-04T22:04:31.521Z,19.90
2023-03-04T22:06:58.050Z,25.25
2023-03-04T22:09:24.974Z,20.67
2023-03-04T22:11:51.445Z,21.48
2023-03-04T22:14:18.147Z,28.42
2023-03-04T22:16:54.356Z,25.20
2023-03-04T22:19:26.723Z,25.05
2023-03-04T22:21:53.648Z,17.75
2023-03-04T22:24:21.008Z,24.90
2023-03-04T22:26:47.662Z,23.13
2023-03-04T22:29:14.433Z,15.95
2023-03-04T22:31:41.047Z,25.63
2023-03-04T22:34:11.079Z,22.10
2023-03-04T22:36:40.424Z,17.88
2023-03-04T22:39:09.775Z,31.67
2023-03-04T22:41:36.506Z,25.30
2023-03-04T22:44:03.298Z,22.58
2023-03-04T22:46:31.863Z,27.13
2023-03-04T22:49:04.712Z,17.52
2023-03-04T22:51:32.048Z,21.77
2023-03-04T22:53:58.539Z,23.02
2023-03-04T22:56:25.121Z,27.00
2023-03-04T22:58:52.043Z,21.88
2023-03-04T23:01:19.611Z,27.30
2023-03-04T23:03:48.390Z,29.35
2023-03-04T23:06:18.215Z,28.52
2023-03-04T23:08:46.623Z,26.00
2023-03-04T23:11:29.259Z,29.27
2023-03-04T23:13:57.085Z,29.73
2023-03-04T23:16:25.280Z,20.92
2023-03-04T23:18:52.097Z,35.35
2023-03-04T23:21:24.658Z,33.95
2023-03-04T23:23:52.193Z,35.97
2023-03-04T23:26:21.524Z,31.77
2023-03-04T23:28:48.378Z,39.55
2023-03-04T23:31:15.089Z,31.02
2023-03-04T23:33:43.145Z,40.25
2023-03-04T23:36:15.587Z,39.90
2023-03-04T23:38:46.983Z,21.15
2023-03-04T23:41:15.450Z,30.13
2023-03-04T23:43:41.869Z,28.52
2023-03-04T23:46:14.182Z,36.95
2023-03-04T23:48:43.283Z,31.17
2023-03-04T23:51:10.552Z,24.17
2023-03-04T23:53:38.987Z,26.75
2023-03-04T23:56:34.522Z,25.92
2023-03-04T23:59:00.984Z,37.10
